Time;durP1;ratioP1;P1;durP2;ratioP2;P2;SDS_P1;SDS_P2;PMS_P1;PMS_P2;Temp;Humidity;BMP_temperature;BMP_pressure;BME280_temperature;BME280_humidity;BME280_pressure;Samples;Min_cycle;Max_cycle;Signal;HPM_P1;HPM_P2
2022/12/18 00:01:24;;;;;;;;;44.33;38.67;;;;;-2.28;68.66;102144.16;4976055;28;45312;-45
2022/12/18 00:03:51;;;;;;;;;43.67;31.00;;;;;-2.28;68.60;102152.81;4976276;28;45412;-46
2022/12/18 00:06:16;;;;;;;;;50.33;34.00;;;;;-2.27;68.41;102158.94;4975994;28;45434;-47
2022/12/18 00:08:43;;;;;;;;;52.33;39.33;;;;;-2.30;68.47;102153.75;4975727;28;45961;-44
2022/12/18 00:11:11;;;;;;;;;36.67;32.67;;;;;-2.34;68.45;102150.34;4975873;28;45283;-47
2022/12/18 00:13:37;;;;;;;;;51.67;39.00;;;;;-2.46;68.28;102118.47;4975926;28;45218;-46
2022/12/18 00:16:05;;;;;;;;;47.00;34.00;;;;;-2.43;68.01;102134.91;4975935;28;45518;-43
2022/12/18 00:18:30;;;;;;;;;47.33;37.00;;;;;-2.36;68.28;102143.44;4975783;28;46463;-46
2022/12/18 00:21:00;;;;;;;;;47.33;36.67;;;;;-2.34;67.97;102136.47;4975902;28;45372;-44
2022/12/18 00:23:26;;;;;;;;;53.67;42.00;;;;;-2.34;68.03;102137.31;4975768;27;45367;-43
2022/12/18 00:25:52;;;;;;;;;66.33;45.00;;;;;-2.37;68.14;102147.81;4976006;28;45238;-45
2022/12/18 00:28:17;;;;;;;;;60.67;39.67;;;;;-2.38;68.52;102151.31;4975278;28;47581;-44
2022/12/18 00:30:42;;;;;;;;;53.67;34.00;;;;;-2.37;68.17;102147.81;4975814;28;45198;-46
2022/12/18 00:33:08;;;;;;;;;46.33;40.67;;;;;-2.37;68.81;102136.53;4975815;28;45385;-44
2022/12/18 00:35:33;;;;;;;;;61.67;45.33;;;;;-2.27;68.30;102149.34;4975998;28;45249;-45
2022/12/18 00:37:58;;;;;;;;;58.00;43.67;;;;;-2.29;68.39;102151.13;4975438;28;45631;-43
2022/12/18 00:40:23;;;;;;;;;65.67;48.33;;;;;-2.39;68.42;102139.16;4975534;28;45389;-45
2022/12/18 00:42:55;;;;;;;;;66.33;44.33;;;;;-2.23;68.24;102159.69;4990792;28;45377;-46
2022/12/18 00:45:21;;;;;;;;;62.00;45.33;;;;;-2.21;68.28;102160.53;4975768;28;45473;-47
2022/12/18 00:47:46;;;;;;;;;65.33;45.00;;;;;-2.26;67.96;102158.03;4974650;28;47183;-47
2022/12/18 00:50:11;;;;;;;;;56.33;40.33;;;;;-2.28;67.52;102155.44;4974712;28;45341;-45
2022/12/18 00:52:40;;;;;;;;;66.00;45.33;;;;;-2.24;67.69;102163.19;4975489;28;45218;-42
2022/12/18 00:55:06;;;;;;;;;47.67;38.33;;;;;-2.24;67.54;102163.19;4974476;28;45276;-43
2022/12/18 00:57:31;;;;;;;;;45.33;38.33;;;;;-2.23;67.46;102151.88;4975265;28;46981;-46
2022/12/18 00:59:57;;;;;;;;;57.67;42.33;;;;;-2.24;67.63;102150.16;4975316;28;45328;-52
2022/12/18 01:02:22;;;;;;;;;46.67;33.67;;;;;-2.21;67.70;102161.41;4974118;28;45386;-45
2022/12/18 01:04:48;;;;;;;;;46.33;39.33;;;;;-2.22;67.33;102151.88;4975643;28;45458;-44
2022/12/18 01:07:13;;;;;;;;;47.67;30.67;;;;;-2.21;67.49;102148.38;4975126;28;47587;-44
2022/12/18 01:09:38;;;;;;;;;50.33;40.00;;;;;-2.23;67.16;102142.34;4973875;28;45328;-45
2022/12/18 01:12:04;;;;;;;;;51.33;27.33;;;;;-2.27;67.06;102141.53;4975179;28;45385;-45
2022/12/18 01:14:29;;;;;;;;;41.00;30.67;;;;;-2.31;67.16;102136.41;4976761;28;45196;-47
2022/12/18 01:16:55;;;;;;;;;40.00;32.33;;;;;-2.30;67.41;102135.53;4974938;28;45963;-44
2022/12/18 01:19:20;;;;;;;;;45.33;29.33;;;;;-2.28;67.08;102144.16;4975137;28;45366;-46
2022/12/18 01:21:45;;;;;;;;;36.67;33.00;;;;;-2.27;67.31;102138.06;4975133;28;45435;-43
2022/12/18 01:24:11;;;;;;;;;41.67;35.67;;;;;-2.31;66.88;102137.28;4975366;28;45145;-42
2022/12/18 01:26:37;;;;;;;;;38.00;30.33;;;;;-2.35;67.21;102130.41;4975106;28;46019;-43
2022/12/18 01:29:02;;;;;;;;;43.67;36.67;;;;;-2.38;67.17;102133.06;4974996;28;45211;-43
2022/12/18 01:31:30;;;;;;;;;46.33;39.33;;;;;-2.39;67.06;102133.09;4975414;28;45349;-44
2022/12/18 01:33:56;;;;;;;;;52.67;34.33;;;;;-2.43;66.78;102142.72;4975342;28;45655;-44
2022/12/18 01:36:24;;;;;;;;;41.67;35.33;;;;;-2.40;66.45;102147.00;4973506;28;45476;-46
2022/12/18 01:38:51;;;;;;;;;50.33;34.67;;;;;-2.38;67.09;102142.63;4974989;28;45260;-47
2022/12/18 01:41:18;;;;;;;;;30.67;24.67;;;;;-2.39;67.27;102133.09;4975072;28;45246;-46
2022/12/18 01:43:57;;;;;;;;;33.33;25.67;;;;;-2.40;66.93;102140.06;4975170;28;45380;-45
2022/12/18 01:46:25;;;;;;;;;45.00;30.33;;;;;-2.44;67.17;102140.13;4974855;28;45554;-44
2022/12/18 01:48:55;;;;;;;;;44.67;31.67;;;;;-2.46;66.94;102142.78;4974503;28;45273;-45
2022/12/18 01:51:20;;;;;;;;;44.33;34.00;;;;;-2.64;66.90;102104.06;4974845;28;45327;-45
2022/12/18 01:53:47;;;;;;;;;55.33;40.67;;;;;-2.61;67.00;102107.47;4975029;28;45489;-45
2022/12/18 01:56:16;;;;;;;;;43.67;34.67;;;;;-2.51;67.33;102129.84;4975614;28;45432;-54
2022/12/18 01:58:50;;;;;;;;;48.00;39.33;;;;;-2.53;67.11;102126.41;4974675;28;45343;-55
2022/12/18 02:01:16;;;;;;;;;51.00;39.33;;;;;-2.59;67.42;102121.31;4974363;28;45350;-56
2022/12/18 02:03:42;;;;;;;;;44.00;32.33;;;;;-2.55;67.08;102122.97;4974967;28;45461;-57
2022/12/18 02:06:16;;;;;;;;;52.67;33.00;;;;;-2.57;67.43;102118.66;4974494;28;47463;-57
2022/12/18 02:08:45;;;;;;;;;44.67;36.00;;;;;-2.58;66.95;102112.59;4972974;28;45306;-57
2022/12/18 02:11:33;;;;;;;;;38.67;32.33;;;;;-2.63;67.23;102103.16;4975108;28;45410;-54
2022/12/18 02:14:16;;;;;;;;;60.33;41.67;;;;;-2.65;67.42;102102.34;4975343;28;45272;-55
2022/12/18 02:16:57;;;;;;;;;37.00;32.67;;;;;-2.79;67.10;102072.19;4974712;28;46352;-53
2022/12/18 02:19:54;;;;;;;;;41.33;33.33;;;;;-2.63;67.31;102106.63;4974185;28;45708;-54
2022/12/18 02:22:52;;;;;;;;;49.00;39.00;;;;;-2.63;67.00;102108.38;4974219;28;45351;-56
2022/12/18 02:25:23;;;;;;;;;46.67;35.33;;;;;-2.68;67.25;102090.22;4952888;28;45491;-53
2022/12/18 02:27:50;;;;;;;;;41.00;34.67;;;;;-2.71;67.53;102095.47;4952132;28;46433;-56
2022/12/18 02:30:17;;;;;;;;;36.00;25.00;;;;;-2.70;67.88;102091.97;4952521;28;45401;-50
2022/12/18 02:32:52;;;;;;;;;45.33;36.33;;;;;-2.69;67.76;102088.50;4952515;28;45440;-52
2022/12/18 02:35:23;;;;;;;;;48.00;37.67;;;;;-2.66;67.20;102092.78;4952591;28;45552;-54
2022/12/18 02:37:50;;;;;;;;;49.67;40.00;;;;;-2.67;67.76;102099.75;4952251;28;46031;-47
2022/12/18 02:40:18;;;;;;;;;45.00;34.67;;;;;-2.70;67.62;102088.53;4951593;28;45371;-55
2022/12/18 02:42:44;;;;;;;;;53.33;37.67;;;;;-2.72;68.03;102088.56;4952320;28;45347;-47
2022/12/18 02:45:09;;;;;;;;;34.67;25.67;;;;;-2.71;67.77;102085.06;4952435;28;45342;-46
2022/12/18 02:47:40;;;;;;;;;41.33;30.00;;;;;-2.71;68.04;102079.84;4952041;28;46172;-56
2022/12/18 02:50:05;;;;;;;;;44.67;33.67;;;;;-2.71;68.07;102074.66;4952145;28;45331;-47
2022/12/18 02:52:46;;;;;;;;;51.33;41.33;;;;;-2.72;68.00;102062.50;4952200;28;45443;-44
2022/12/18 02:55:16;;;;;;;;;54.33;42.67;;;;;-2.68;68.04;102071.13;4952370;28;45392;-49
2022/12/18 02:57:53;;;;;;;;;40.00;35.33;;;;;-2.70;68.05;102065.94;4952010;28;46969;-44
2022/12/18 03:00:33;;;;;;;;;35.67;24.00;;;;;-2.72;68.14;102066.88;4957462;28;45443;-44
2022/12/18 03:03:11;;;;;;;;;44.67;31.33;;;;;-2.70;68.16;102060.72;4972568;28;45261;-48
2022/12/18 03:05:42;;;;;;;;;44.33;35.33;;;;;-2.73;68.03;102054.75;4973994;28;45363;-45
2022/12/18 03:08:18;;;;;;;;;47.67;32.00;;;;;-2.69;68.10;102059.88;4973255;28;45380;-42
2022/12/18 03:11:11;;;;;;;;;40.67;33.00;;;;;-2.70;68.00;102052.91;4973330;28;45398;-46
2022/12/18 03:13:47;;;;;;;;;26.67;22.33;;;;;-2.69;68.18;102059.88;4975510;27;45535;-46
2022/12/18 03:16:17;;;;;;;;;31.00;24.33;;;;;-2.70;68.10;102062.47;4976946;28;45286;-43
2022/12/18 03:18:48;;;;;;;;;42.33;30.67;;;;;-2.83;68.30;102044.47;4976524;28;45376;-44
2022/12/18 03:21:17;;;;;;;;;52.33;35.33;;;;;-2.83;68.55;102054.91;4976554;28;45353;-46
2022/12/18 03:23:50;;;;;;;;;54.00;39.33;;;;;-2.79;68.34;102059.16;4976686;28;45317;-47
2022/12/18 03:26:21;;;;;;;;;48.67;36.67;;;;;-2.75;68.57;102065.16;4976829;28;45425;-44
2022/12/18 03:28:53;;;;;;;;;47.33;30.33;;;;;-2.80;68.25;102057.44;4976123;28;46340;-45
2022/12/18 03:31:22;;;;;;;;;49.00;33.67;;;;;-2.76;68.40;102059.09;4976386;28;45430;-44
2022/12/18 03:33:53;;;;;;;;;54.67;41.33;;;;;-2.72;68.58;102062.50;4976699;28;45173;-45
2022/12/18 03:36:19;;;;;;;;;59.33;40.67;;;;;-2.77;68.66;102061.75;4976801;28;45323;-48
2022/12/18 03:38:44;;;;;;;;;36.67;27.33;;;;;-2.79;68.84;102059.16;4976141;28;46140;-44
2022/12/18 03:41:32;;;;;;;;;46.00;37.67;;;;;-2.78;69.08;102063.50;4976485;28;45255;-46
2022/12/18 03:44:13;;;;;;;;;48.33;33.67;;;;;-2.80;68.77;102062.66;4976450;28;45235;-44
2022/12/18 03:47:03;;;;;;;;;49.00;37.00;;;;;-2.80;69.17;102070.47;4976300;28;45847;-46
2022/12/18 03:49:31;;;;;;;;;43.00;35.67;;;;;-2.80;68.83;102067.88;4976135;28;45400;-55
2022/12/18 03:52:20;;;;;;;;;45.33;33.33;;;;;-2.82;69.18;102056.63;4975995;28;45427;-44
2022/12/18 03:54:47;;;;;;;;;51.67;36.67;;;;;-2.82;69.01;102051.44;4976247;28;45354;-46
2022/12/18 03:57:22;;;;;;;;;37.00;26.00;;;;;-2.79;69.23;102048.75;4976514;28;45289;-46
2022/12/18 03:59:52;;;;;;;;;49.33;38.33;;;;;-2.74;69.26;102042.59;4976233;28;46530;-45
2022/12/18 04:02:18;;;;;;;;;45.33;34.00;;;;;-2.72;69.21;102046.88;4975926;28;45418;-51
2022/12/18 04:04:46;;;;;;;;;36.00;29.67;;;;;-2.84;68.98;102013.28;4976268;28;45357;-48
2022/12/18 04:07:13;;;;;;;;;44.00;32.33;;;;;-2.77;69.17;102022.69;4975098;28;45269;-52
2022/12/18 04:09:40;;;;;;;;;53.33;38.33;;;;;-2.74;69.10;102024.34;4975604;28;46066;-46
2022/12/18 04:12:06;;;;;;;;;47.67;34.67;;;;;-2.72;68.93;102022.59;4976313;28;45356;-47
2022/12/18 04:14:35;;;;;;;;;34.00;27.33;;;;;-2.74;69.44;102022.59;4975976;28;45248;-46
2022/12/18 04:17:01;;;;;;;;;36.33;34.00;;;;;-2.87;68.79;101998.56;4976150;28;45222;-51
2022/12/18 04:19:26;;;;;;;;;42.00;31.33;;;;;-2.79;69.55;102019.25;4975854;28;45948;-45
2022/12/18 04:21:51;;;;;;;;;37.67;29.33;;;;;-2.75;69.55;102033.91;4975839;28;45455;-43
2022/12/18 04:24:17;;;;;;;;;56.67;39.67;;;;;-2.77;69.63;102031.34;4975763;28;45221;-45
2022/12/18 04:26:42;;;;;;;;;46.33;35.67;;;;;-2.77;69.36;102023.53;4976195;28;45505;-52
2022/12/18 04:29:07;;;;;;;;;39.33;30.67;;;;;-2.77;69.22;102033.97;4975618;28;46088;-54
2022/12/18 04:31:33;;;;;;;;;52.00;37.67;;;;;-2.78;69.01;102027.03;4975802;28;45327;-45
2022/12/18 04:33:58;;;;;;;;;48.67;36.67;;;;;-2.71;69.73;102032.13;4975750;28;45814;-45
2022/12/18 04:36:23;;;;;;;;;48.00;33.67;;;;;-2.72;69.08;102031.25;4975916;28;45462;-44
2022/12/18 04:38:48;;;;;;;;;38.67;34.00;;;;;-2.75;70.00;102020.91;4975688;28;46280;-55
2022/12/18 04:41:14;;;;;;;;;43.33;30.67;;;;;-2.69;69.48;102030.34;4975618;28;45389;-50
2022/12/18 04:43:39;;;;;;;;;29.67;26.67;;;;;-2.66;69.13;102030.28;4975924;28;45460;-45
2022/12/18 04:46:06;;;;;;;;;45.67;39.33;;;;;-2.70;68.99;102031.22;4975835;28;45165;-48
2022/12/18 04:48:32;;;;;;;;;54.67;39.67;;;;;-2.71;69.35;102029.50;4975075;28;46169;-44
2022/12/18 04:50:58;;;;;;;;;46.67;39.67;;;;;-2.87;69.52;102008.13;4975572;28;45386;-47
2022/12/18 04:53:23;;;;;;;;;42.33;27.67;;;;;-2.77;69.40;102036.56;4975401;28;45440;-56
2022/12/18 04:55:49;;;;;;;;;55.67;37.00;;;;;-2.79;69.36;102032.25;4974587;28;45438;-44
2022/12/18 04:58:14;;;;;;;;;48.33;36.33;;;;;-2.85;69.48;102025.44;4975123;28;46778;-45
2022/12/18 05:00:39;;;;;;;;;45.33;30.67;;;;;-2.88;69.76;102022.03;4975320;28;45388;-54
2022/12/18 05:03:05;;;;;;;;;40.00;33.00;;;;;-2.74;69.52;102045.19;4975627;28;45280;-47
2022/12/18 05:05:30;;;;;;;;;49.00;35.33;;;;;-2.76;69.47;102046.09;4975550;28;45429;-45
2022/12/18 05:07:56;;;;;;;;;42.00;35.33;;;;;-2.78;69.54;102042.66;4975010;28;46061;-46
2022/12/18 05:10:21;;;;;;;;;65.33;44.33;;;;;-2.85;69.40;102035.84;4975007;28;45295;-56
2022/12/18 05:12:58;;;;;;;;;46.33;34.67;;;;;-2.83;69.55;102039.28;4975402;28;45194;-44
2022/12/18 05:15:26;;;;;;;;;41.67;34.00;;;;;-2.81;69.80;102047.06;4975518;28;45607;-45
2022/12/18 05:17:52;;;;;;;;;39.67;34.00;;;;;-2.80;69.69;102048.78;4975043;28;45503;-49
2022/12/18 05:20:18;;;;;;;;;45.00;36.00;;;;;-2.83;69.76;102047.09;4975030;28;45714;-52
2022/12/18 05:22:43;;;;;;;;;50.33;36.67;;;;;-2.80;69.90;102054.00;4973895;28;45406;-48
2022/12/18 05:25:09;;;;;;;;;34.67;27.00;;;;;-2.82;69.80;102051.44;4975084;28;45396;-45
2022/12/18 05:27:34;;;;;;;;;40.67;34.67;;;;;-2.79;69.61;102055.69;4975132;28;46127;-46
2022/12/18 05:29:59;;;;;;;;;53.67;35.67;;;;;-2.84;69.41;102047.97;4974816;28;48831;-48
2022/12/18 05:32:25;;;;;;;;;43.33;31.00;;;;;-2.76;69.64;102061.72;4974909;28;45295;-49
2022/12/18 05:34:50;;;;;;;;;43.67;35.33;;;;;-2.76;69.59;102063.47;4974544;28;45389;-46
2022/12/18 05:37:16;;;;;;;;;48.33;36.33;;;;;-2.78;69.67;102070.47;4974721;28;45986;-47
2022/12/18 05:39:42;;;;;;;;;58.33;42.33;;;;;-2.84;69.83;102074.03;4974991;28;45260;-45
2022/12/18 05:42:07;;;;;;;;;52.67;36.67;;;;;-2.87;69.35;102074.06;4974928;28;45487;-47
2022/12/18 05:44:33;;;;;;;;;39.33;34.00;;;;;-2.86;69.92;102077.56;4975300;28;45318;-47
2022/12/18 05:46:59;;;;;;;;;50.67;39.67;;;;;-2.93;69.99;102058.56;4974345;28;46290;-44
2022/12/18 05:49:24;;;;;;;;;43.00;34.00;;;;;-2.90;70.19;102061.13;4974607;28;45316;-49
2022/12/18 05:51:49;;;;;;;;;44.33;36.67;;;;;-2.86;70.34;102054.13;4976491;28;45248;-46
2022/12/18 05:54:15;;;;;;;;;43.00;39.33;;;;;-2.85;70.58;102053.22;4975002;28;45365;-45
2022/12/18 05:56:40;;;;;;;;;31.33;22.67;;;;;-2.87;69.87;102045.41;4974666;28;47115;-46
2022/12/18 05:59:05;;;;;;;;;43.00;33.33;;;;;-2.89;70.10;102047.22;4974646;28;45377;-47
2022/12/18 06:01:31;;;;;;;;;47.67;33.67;;;;;-2.91;70.13;102030.75;4974724;28;45444;-48
2022/12/18 06:03:56;;;;;;;;;48.33;35.67;;;;;-2.86;70.55;102035.91;4974855;28;45240;-52
2022/12/18 06:06:28;;;;;;;;;37.00;28.33;;;;;-2.92;70.05;102025.59;4974297;28;46020;-47
2022/12/18 06:08:54;;;;;;;;;51.67;33.67;;;;;-3.02;69.67;102014.50;4974857;28;45293;-47
2022/12/18 06:11:22;;;;;;;;;35.33;34.33;;;;;-2.86;70.02;102034.16;4974949;28;45285;-47
2022/12/18 06:13:56;;;;;;;;;40.67;31.33;;;;;-2.88;70.17;102024.63;4974925;28;45375;-57
2022/12/18 06:16:21;;;;;;;;;45.00;30.67;;;;;-2.87;69.52;102027.19;4974813;28;45382;-45
2022/12/18 06:18:47;;;;;;;;;54.00;28.67;;;;;-2.87;70.17;102034.16;4974847;28;45383;-50
2022/12/18 06:21:12;;;;;;;;;49.33;38.67;;;;;-2.83;70.06;102026.25;4975784;28;45353;-46
2022/12/18 06:23:38;;;;;;;;;54.00;34.33;;;;;-2.85;69.65;102017.63;4975295;28;45421;-46
2022/12/18 06:26:06;;;;;;;;;40.00;34.00;;;;;-2.79;69.28;102030.50;4973160;28;46021;-50
2022/12/18 06:28:31;;;;;;;;;50.33;39.67;;;;;-2.80;69.12;102033.16;4974351;28;45464;-47
2022/12/18 06:30:56;;;;;;;;;38.67;28.67;;;;;-2.83;69.12;102033.22;4974861;28;45367;-44
2022/12/18 06:33:25;;;;;;;;;37.00;27.67;;;;;-2.84;69.77;102036.72;4974717;28;45485;-49
2022/12/18 06:35:50;;;;;;;;;44.33;34.67;;;;;-2.84;69.82;102027.16;4975736;28;46342;-49
2022/12/18 06:38:15;;;;;;;;;46.00;36.33;;;;;-2.84;69.63;102032.34;4975633;28;45384;-53
2022/12/18 06:40:41;;;;;;;;;64.67;43.33;;;;;-2.84;69.77;102028.91;4975654;28;45465;-53
2022/12/18 06:43:06;;;;;;;;;40.00;33.00;;;;;-2.92;69.87;102017.78;4974707;28;45316;-44
2022/12/18 06:45:31;;;;;;;;;41.33;29.33;;;;;-2.87;69.25;102021.13;4974095;28;47808;-45
2022/12/18 06:47:57;;;;;;;;;50.67;32.00;;;;;-2.90;69.61;102021.22;4976426;28;45366;-45
2022/12/18 06:50:22;;;;;;;;;48.33;34.33;;;;;-2.87;69.61;102036.75;4978081;28;45830;-54
2022/12/18 06:52:47;;;;;;;;;40.33;31.67;;;;;-2.94;69.34;102025.63;4978736;28;45608;-51
2022/12/18 06:55:13;;;;;;;;;48.00;33.00;;;;;-2.96;69.67;102027.38;4977832;28;46036;-56
2022/12/18 06:57:38;;;;;;;;;37.00;34.00;;;;;-2.95;69.80;102023.03;4977213;28;45391;-55
2022/12/18 07:00:06;;;;;;;;;56.33;39.33;;;;;-3.03;69.28;101997.16;4977736;28;45334;-54
2022/12/18 07:02:32;;;;;;;;;39.67;31.00;;;;;-3.01;69.56;102019.66;4977172;28;45525;-43
2022/12/18 07:04:57;;;;;;;;;55.00;42.00;;;;;-3.08;69.49;102001.56;4977293;28;48168;-51
2022/12/18 07:07:23;;;;;;;;;49.33;31.00;;;;;-3.12;69.59;101986.91;4976799;28;45343;-52
2022/12/18 07:09:50;;;;;;;;;45.00;29.67;;;;;-3.07;69.88;102013.72;4976592;28;45421;-53
2022/12/18 07:12:15;;;;;;;;;43.33;32.67;;;;;-3.11;69.80;102001.66;4976987;28;45419;-53
2022/12/18 07:14:41;;;;;;;;;36.67;32.33;;;;;-3.28;69.54;101974.19;4976332;28;45753;-54
2022/12/18 07:17:06;;;;;;;;;49.00;32.33;;;;;-3.15;69.70;102008.66;4976548;28;45417;-53
2022/12/18 07:19:31;;;;;;;;;43.67;39.67;;;;;-3.18;69.96;102006.09;4976816;28;45327;-54
2022/12/18 07:21:56;;;;;;;;;45.67;33.33;;;;;-3.20;69.79;102007.88;4976789;28;45363;-54
2022/12/18 07:24:22;;;;;;;;;36.33;22.67;;;;;-3.20;69.43;101999.19;4976577;28;45378;-47
2022/12/18 07:26:47;;;;;;;;;42.33;36.33;;;;;-3.22;69.85;102014.84;4976388;28;45336;-54
2022/12/18 07:29:13;;;;;;;;;41.33;35.00;;;;;-3.27;69.78;102001.06;4976568;28;45326;-52
2022/12/18 07:31:38;;;;;;;;;45.00;33.67;;;;;-3.27;70.29;101999.31;4976866;28;45391;-54
2022/12/18 07:34:03;;;;;;;;;51.33;38.00;;;;;-3.41;69.47;101983.13;4976223;28;46225;-58
2022/12/18 07:36:29;;;;;;;;;47.00;33.33;;;;;-3.33;70.05;102006.38;4976552;28;45401;-54
2022/12/18 07:38:54;;;;;;;;;42.33;34.00;;;;;-3.30;70.64;102012.38;4976353;28;45322;-54
2022/12/18 07:41:20;;;;;;;;;40.00;28.67;;;;;-3.31;70.29;102021.06;4976614;28;45409;-54
2022/12/18 07:43:46;;;;;;;;;44.67;34.33;;;;;-3.27;70.15;102021.88;4976489;28;45975;-55
2022/12/18 07:46:15;;;;;;;;;37.00;26.67;;;;;-3.27;69.63;102027.09;4976065;28;45473;-53
2022/12/18 07:48:42;;;;;;;;;33.00;25.67;;;;;-3.38;69.98;102016.00;4974654;28;45501;-50
2022/12/18 07:51:12;;;;;;;;;39.67;32.33;;;;;-3.31;69.91;102015.88;4976529;28;45640;-54
2022/12/18 07:53:38;;;;;;;;;42.33;30.00;;;;;-3.25;69.68;102038.31;4976093;28;45404;-54
2022/12/18 07:56:06;;;;;;;;;55.67;42.33;;;;;-3.24;70.17;102039.16;4976021;28;45486;-52
2022/12/18 07:58:32;;;;;;;;;41.33;34.33;;;;;-3.21;69.51;102037.38;4975982;28;45362;-51
2022/12/18 08:01:13;;;;;;;;;52.67;36.67;;;;;-3.17;69.67;102030.38;4976345;28;45342;-46
2022/12/18 08:03:40;;;;;;;;;42.33;30.33;;;;;-3.13;69.99;102014.69;4975917;28;46332;-54
2022/12/18 08:06:07;;;;;;;;;39.33;27.00;;;;;-3.12;69.45;102019.03;4976099;28;45371;-47
2022/12/18 08:08:33;;;;;;;;;39.00;31.00;;;;;-3.14;69.61;102009.50;4976146;28;45319;-52
2022/12/18 08:10:59;;;;;;;;;51.33;37.33;;;;;-3.12;70.03;102016.41;4976259;28;45415;-51
2022/12/18 08:13:25;;;;;;;;;32.33;27.33;;;;;-3.14;69.71;102007.75;4975963;28;45781;-49
2022/12/18 08:15:58;;;;;;;;;48.00;40.67;;;;;-3.14;69.88;102009.50;4975985;28;45343;-52
2022/12/18 08:18:24;;;;;;;;;43.67;37.33;;;;;-3.13;69.92;102016.44;4976087;28;45336;-53
2022/12/18 08:20:49;;;;;;;;;48.67;35.00;;;;;-3.23;69.78;102005.34;4976285;28;45429;-53
2022/12/18 08:23:15;;;;;;;;;52.33;36.67;;;;;-3.28;69.21;102008.03;4975925;28;45804;-53
2022/12/18 08:25:40;;;;;;;;;43.67;28.00;;;;;-3.17;69.12;102025.16;4977526;27;45395;-48
2022/12/18 08:28:05;;;;;;;;;50.67;34.00;;;;;-3.31;70.01;102002.00;4975965;28;45350;-53
2022/12/18 08:30:31;;;;;;;;;49.33;36.67;;;;;-3.13;70.10;102026.84;4976041;28;45184;-55
2022/12/18 08:32:56;;;;;;;;;47.33;37.33;;;;;-3.09;69.98;102038.91;4975687;28;45317;-48
2022/12/18 08:35:21;;;;;;;;;40.00;28.67;;;;;-3.04;69.86;102035.31;4975727;28;45335;-53
2022/12/18 08:37:47;;;;;;;;;39.67;33.00;;;;;-3.00;69.83;102041.34;4975967;28;45416;-43
2022/12/18 08:40:12;;;;;;;;;50.33;37.67;;;;;-3.00;69.12;102051.75;4975948;28;45429;-45
2022/12/18 08:45:22;;;;;;;;;38.67;31.33;;;;;-2.96;69.17;102035.19;4975532;28;45529;-51
2022/12/18 08:47:47;;;;;;;;;57.33;41.33;;;;;-2.95;68.74;102033.44;4975740;27;45921;-44
2022/12/18 08:50:12;;;;;;;;;41.33;36.00;;;;;-2.90;69.27;102050.72;4975989;28;45304;-43
2022/12/18 08:52:38;;;;;;;;;35.67;31.33;;;;;-2.93;68.82;102040.34;4975478;28;45339;-49
2022/12/18 08:55:04;;;;;;;;;22.00;18.33;;;;;-2.93;69.02;102055.97;4975468;28;45286;-44
2022/12/18 08:57:29;;;;;;;;;40.33;33.67;;;;;-2.93;68.95;102052.50;4975583;28;45288;-44
2022/12/18 08:59:55;;;;;;;;;33.00;21.33;;;;;-2.99;69.06;102050.88;4975768;28;45268;-42
2022/12/18 09:02:20;;;;;;;;;40.33;33.00;;;;;-2.86;68.88;102062.78;4975626;28;46153;-44
2022/12/18 09:04:47;;;;;;;;;69.00;48.00;;;;;-2.79;69.23;102064.38;4975485;28;45243;-43
2022/12/18 09:07:12;;;;;;;;;34.33;28.33;;;;;-2.77;68.83;102059.16;4975396;28;45393;-46
2022/12/18 09:09:38;;;;;;;;;47.33;38.33;;;;;-2.74;68.75;102056.47;4974336;28;45407;-47
2022/12/18 09:12:03;;;;;;;;;40.00;30.33;;;;;-2.74;68.80;102053.84;4976106;28;46179;-45
2022/12/18 09:14:28;;;;;;;;;45.33;39.33;;;;;-2.83;68.63;102036.66;4977599;28;45379;-47
2022/12/18 09:16:54;;;;;;;;;46.00;34.00;;;;;-2.77;68.72;102046.97;4976705;28;45291;-45
2022/12/18 09:19:19;;;;;;;;;49.33;33.33;;;;;-2.82;68.70;102032.34;4975730;28;45395;-48
2022/12/18 09:21:45;;;;;;;;;43.67;35.67;;;;;-2.67;68.63;102058.06;4975457;27;46362;-45
2022/12/18 09:24:13;;;;;;;;;61.33;38.33;;;;;-2.65;68.73;102045.03;4975121;28;45325;-45
2022/12/18 09:26:38;;;;;;;;;34.33;31.00;;;;;-2.65;68.88;102042.44;4975160;28;45317;-43
2022/12/18 09:29:04;;;;;;;;;45.00;36.67;;;;;-2.61;68.57;102049.28;4975426;28;45469;-44
2022/12/18 09:31:29;;;;;;;;;49.33;39.33;;;;;-2.65;68.47;102032.00;4974747;28;46025;-47
2022/12/18 09:33:56;;;;;;;;;47.33;34.00;;;;;-2.61;68.43;102038.88;4975264;28;45386;-47
2022/12/18 09:36:21;;;;;;;;;58.33;42.33;;;;;-2.64;68.42;102031.13;4975003;28;45508;-47
2022/12/18 09:38:47;;;;;;;;;38.33;33.67;;;;;-2.65;68.36;102025.06;4973972;28;45438;-46
2022/12/18 09:41:27;;;;;;;;;59.33;43.33;;;;;-2.63;68.46;102028.47;4974668;28;46431;-46
2022/12/18 09:44:00;;;;;;;;;48.67;39.33;;;;;-2.65;68.69;102034.63;4974741;28;45250;-45
2022/12/18 09:46:30;;;;;;;;;42.00;30.00;;;;;-2.70;68.23;102024.25;4974857;28;45528;-44
2022/12/18 09:49:01;;;;;;;;;45.33;31.67;;;;;-2.62;68.89;102032.78;4973757;28;45433;-50
2022/12/18 09:51:32;;;;;;;;;48.67;37.00;;;;;-2.57;68.72;102030.97;4974572;28;45324;-46
2022/12/18 09:54:03;;;;;;;;;45.67;38.33;;;;;-2.53;68.35;102031.72;4974567;28;45417;-44
2022/12/18 09:56:35;;;;;;;;;42.33;36.67;;;;;-2.52;68.56;102036.09;4974753;28;45288;-47
2022/12/18 09:59:02;;;;;;;;;55.33;43.00;;;;;-2.47;68.18;102030.78;4975065;28;45342;-46
2022/12/18 10:01:29;;;;;;;;;39.00;27.33;;;;;-2.42;68.75;102021.97;4974515;28;45489;-46
2022/12/18 10:03:56;;;;;;;;;47.67;36.00;;;;;-2.38;68.29;102023.59;4974609;28;45288;-42
2022/12/18 10:06:33;;;;;;;;;47.00;34.67;;;;;-2.36;68.36;102019.25;4974783;28;45419;-43
2022/12/18 10:09:12;;;;;;;;;41.67;26.33;;;;;-2.31;68.23;102019.13;4974796;28;45241;-44
2022/12/18 10:11:47;;;;;;;;;43.67;36.33;;;;;-2.24;68.34;102019.84;4974129;28;47376;-44
2022/12/18 10:14:21;;;;;;;;;46.67;39.33;;;;;-2.19;68.27;102015.38;4974441;28;45414;-44
2022/12/18 10:17:17;;;;;;;;;55.33;38.67;;;;;-2.11;68.14;102014.31;4974639;28;45366;-43
2022/12/18 10:19:57;;;;;;;;;44.67;34.67;;;;;-2.05;67.71;102008.13;4974723;28;45337;-47
2022/12/18 10:22:49;;;;;;;;;47.33;33.33;;;;;-1.98;67.96;102024.47;4976909;28;46017;-45
2022/12/18 10:25:23;;;;;;;;;41.00;31.67;;;;;-1.89;67.88;102019.91;4977271;28;45320;-45
2022/12/18 10:27:54;;;;;;;;;55.67;37.00;;;;;-1.81;67.71;102011.91;4977223;28;45482;-44
2022/12/18 10:30:22;;;;;;;;;43.33;30.33;;;;;-1.73;67.64;101999.50;4977154;28;45437;-44
2022/12/18 10:32:47;;;;;;;;;49.67;37.00;;;;;-1.63;67.59;102003.63;4976907;28;45991;-44
2022/12/18 10:35:19;;;;;;;;;39.00;27.67;;;;;-1.53;67.26;101994.66;4976981;28;45253;-46
2022/12/18 10:38:01;;;;;;;;;54.67;36.33;;;;;-1.46;67.29;101992.78;4977060;28;45424;-45
2022/12/18 10:40:27;;;;;;;;;46.33;35.33;;;;;-1.40;66.85;101991.75;4977157;28;45337;-45
2022/12/18 10:43:20;;;;;;;;;41.00;31.33;;;;;-1.38;67.04;101992.59;4976919;28;47432;-45
2022/12/18 10:46:01;;;;;;;;;47.33;27.33;;;;;-1.37;66.91;101992.53;4975981;28;45433;-45
2022/12/18 10:48:27;;;;;;;;;47.67;39.00;;;;;-1.31;66.91;101992.38;4976844;28;45496;-45
2022/12/18 10:50:53;;;;;;;;;48.00;37.00;;;;;-1.26;66.48;101989.66;4976946;28;45606;-44
2022/12/18 10:53:23;;;;;;;;;53.33;42.67;;;;;-1.15;66.75;102002.41;4976781;28;45299;-45
2022/12/18 10:55:49;;;;;;;;;54.00;38.33;;;;;-1.12;66.64;101984.91;4976515;28;45366;-47
2022/12/18 10:58:38;;;;;;;;;50.00;32.00;;;;;-1.08;66.33;101988.28;4976624;28;45437;-46
2022/12/18 11:01:12;;;;;;;;;54.00;39.50;;;;;-1.08;66.43;101977.84;4976598;28;45326;-46
2022/12/18 11:03:45;;;;;;;;;60.00;44.33;;;;;-1.28;66.24;101955.72;4976526;28;46367;-46
2022/12/18 11:06:19;;;;;;;;;53.67;41.33;;;;;-1.10;66.66;101977.03;4977642;28;45365;-44
2022/12/18 11:09:01;;;;;;;;;45.00;37.67;;;;;-1.14;66.37;101963.19;4976618;28;45369;-47
2022/12/18 11:11:27;;;;;;;;;55.67;35.33;;;;;-0.99;65.98;101976.75;4976398;28;45427;-47
2022/12/18 11:14:02;;;;;;;;;49.67;37.67;;;;;-1.03;66.64;101966.38;4976515;28;46348;-44
2022/12/18 11:16:30;;;;;;;;;52.33;44.00;;;;;-1.02;66.58;101968.06;4976236;28;45453;-46
2022/12/18 11:19:25;;;;;;;;;59.50;42.00;;;;;-0.99;66.78;101966.28;4976414;28;45336;-46